sensor_id;sensor_type;location;lat;lon;timestamp;pressure;altitude;pressure_sealevel;temperature;humidity
38812;BME280;24553;51.640;-0.752;2023-06-26T00:00:08;100835.09;;;17.74;100.00
38812;BME280;24553;51.640;-0.752;2023-06-26T00:02:34;100829.72;;;17.74;100.00
38812;BME280;24553;51.640;-0.752;2023-06-26T00:04:59;100831.56;;;17.61;100.00
38812;BME280;24553;51.640;-0.752;2023-06-26T00:07:31;100832.25;;;17.57;100.00
38812;BME280;24553;51.640;-0.752;2023-06-26T00:09:58;100833.03;;;17.57;100.00
38812;BME280;24553;51.640;-0.752;2023-06-26T00:12:24;100839.59;;;17.61;100.00
38812;BME280;24553;51.640;-0.752;2023-06-26T00:14:49;100831.44;;;17.56;100.00
38812;BME280;24553;51.640;-0.752;2023-06-26T00:17:14;100837.66;;;17.69;100.00
38812;BME280;24553;51.640;-0.752;2023-06-26T00:19:40;100835.19;;;17.67;100.00
38812;BME280;24553;51.640;-0.752;2023-06-26T00:22:05;100836.66;;;17.51;100.00
38812;BME280;24553;51.640;-0.752;2023-06-26T00:24:30;100827.41;;;17.47;100.00
38812;BME280;24553;51.640;-0.752;2023-06-26T00:26:56;100836.06;;;17.49;100.00
38812;BME280;24553;51.640;-0.752;2023-06-26T00:29:21;100839.94;;;17.53;100.00
38812;BME280;24553;51.640;-0.752;2023-06-26T00:31:46;100837.44;;;17.40;100.00
38812;BME280;24553;51.640;-0.752;2023-06-26T00:34:12;100843.81;;;17.39;100.00
38812;BME280;24553;51.640;-0.752;2023-06-26T00:36:37;100850.84;;;17.40;100.00
38812;BME280;24553;51.640;-0.752;2023-06-26T00:39:03;100856.63;;;17.37;100.00
38812;BME280;24553;51.640;-0.752;2023-06-26T00:41:29;100852.34;;;17.36;100.00
38812;BME280;24553;51.640;-0.752;2023-06-26T00:43:54;100857.22;;;17.39;100.00
38812;BME280;24553;51.640;-0.752;2023-06-26T00:46:20;100859.69;;;17.40;100.00
38812;BME280;24553;51.640;-0.752;2023-06-26T00:48:46;100857.09;;;17.34;100.00
38812;BME280;24553;51.640;-0.752;2023-06-26T00:51:13;100856.34;;;17.27;100.00
38812;BME280;24553;51.640;-0.752;2023-06-26T00:53:39;100864.03;;;17.23;100.00
38812;BME280;24553;51.640;-0.752;2023-06-26T00:56:05;100863.91;;;17.18;100.00
38812;BME280;24553;51.640;-0.752;2023-06-26T00:58:30;100863.81;;;17.25;100.00
38812;BME280;24553;51.640;-0.752;2023-06-26T01:00:56;100862.78;;;17.26;100.00
38812;BME280;24553;51.640;-0.752;2023-06-26T01:03:25;100858.75;;;17.16;100.00
38812;BME280;24553;51.640;-0.752;2023-06-26T01:05:56;100869.56;;;17.10;100.00
38812;BME280;24553;51.640;-0.752;2023-06-26T01:08:22;100877.81;;;17.08;100.00
38812;BME280;24553;51.640;-0.752;2023-06-26T01:10:48;100875.00;;;17.03;100.00
38812;BME280;24553;51.640;-0.752;2023-06-26T01:13:14;100872.31;;;17.03;100.00
38812;BME280;24553;51.640;-0.752;2023-06-26T01:15:41;100872.81;;;16.93;100.00
38812;BME280;24553;51.640;-0.752;2023-06-26T01:18:06;100887.13;;;16.87;100.00
38812;BME280;24553;51.640;-0.752;2023-06-26T01:20:36;100885.03;;;16.89;100.00
38812;BME280;24553;51.640;-0.752;2023-06-26T01:25:32;100891.50;;;17.00;100.00
38812;BME280;24553;51.640;-0.752;2023-06-26T01:28:04;100889.66;;;17.00;100.00
38812;BME280;24553;51.640;-0.752;2023-06-26T01:30:31;100887.47;;;16.91;100.00
38812;BME280;24553;51.640;-0.752;2023-06-26T01:32:56;100894.78;;;16.84;100.00
38812;BME280;24553;51.640;-0.752;2023-06-26T01:35:22;100894.56;;;16.85;100.00
38812;BME280;24553;51.640;-0.752;2023-06-26T01:37:47;100897.03;;;16.87;100.00
38812;BME280;24553;51.640;-0.752;2023-06-26T01:40:13;100897.03;;;16.87;100.00
38812;BME280;24553;51.640;-0.752;2023-06-26T01:42:39;100893.84;;;16.71;100.00
38812;BME280;24553;51.640;-0.752;2023-06-26T01:45:13;100895.16;;;16.62;100.00
38812;BME280;24553;51.640;-0.752;2023-06-26T01:47:44;100899.94;;;16.60;100.00
38812;BME280;24553;51.640;-0.752;2023-06-26T01:50:15;100901.78;;;16.60;100.00
38812;BME280;24553;51.640;-0.752;2023-06-26T01:53:04;100903.47;;;16.54;100.00
38812;BME280;24553;51.640;-0.752;2023-06-26T01:55:40;100902.72;;;16.47;100.00
38812;BME280;24553;51.640;-0.752;2023-06-26T01:58:08;100914.03;;;16.49;100.00
38812;BME280;24553;51.640;-0.752;2023-06-26T02:00:34;100909.66;;;16.54;100.00
38812;BME280;24553;51.640;-0.752;2023-06-26T02:03:01;100895.28;;;16.49;100.00
38812;BME280;24553;51.640;-0.752;2023-06-26T02:05:26;100905.84;;;16.44;100.00
38812;BME280;24553;51.640;-0.752;2023-06-26T02:07:51;100894.59;;;16.35;100.00
38812;BME280;24553;51.640;-0.752;2023-06-26T02:10:17;100905.75;;;16.32;100.00
38812;BME280;24553;51.640;-0.752;2023-06-26T02:12:42;100902.91;;;16.27;100.00
38812;BME280;24553;51.640;-0.752;2023-06-26T02:15:08;100899.91;;;16.17;100.00
38812;BME280;24553;51.640;-0.752;2023-06-26T02:17:34;100904.91;;;16.06;100.00
38812;BME280;24553;51.640;-0.752;2023-06-26T02:19:59;100903.94;;;16.01;100.00
38812;BME280;24553;51.640;-0.752;2023-06-26T02:22:24;100899.66;;;15.93;100.00
38812;BME280;24553;51.640;-0.752;2023-06-26T02:24:50;100912.19;;;15.92;100.00
38812;BME280;24553;51.640;-0.752;2023-06-26T02:27:15;100910.72;;;15.97;100.00
38812;BME280;24553;51.640;-0.752;2023-06-26T02:29:41;100913.22;;;15.91;100.00
38812;BME280;24553;51.640;-0.752;2023-06-26T02:32:07;100917.97;;;15.89;100.00
38812;BME280;24553;51.640;-0.752;2023-06-26T02:34:32;100912.25;;;15.86;100.00
38812;BME280;24553;51.640;-0.752;2023-06-26T02:36:58;100909.94;;;15.89;100.00
38812;BME280;24553;51.640;-0.752;2023-06-26T02:39:26;100924.09;;;15.97;100.00
38812;BME280;24553;51.640;-0.752;2023-06-26T02:41:51;100921.44;;;15.97;100.00
38812;BME280;24553;51.640;-0.752;2023-06-26T02:44:16;100919.41;;;15.92;100.00
38812;BME280;24553;51.640;-0.752;2023-06-26T02:46:42;100926.88;;;15.83;100.00
38812;BME280;24553;51.640;-0.752;2023-06-26T02:49:07;100929.72;;;15.88;100.00
38812;BME280;24553;51.640;-0.752;2023-06-26T02:51:33;100930.31;;;15.90;100.00
38812;BME280;24553;51.640;-0.752;2023-06-26T02:53:58;100918.41;;;15.86;100.00
38812;BME280;24553;51.640;-0.752;2023-06-26T02:56:24;100919.28;;;15.80;100.00
38812;BME280;24553;51.640;-0.752;2023-06-26T02:58:49;100931.41;;;15.76;100.00
38812;BME280;24553;51.640;-0.752;2023-06-26T03:01:14;100935.53;;;15.79;100.00
38812;BME280;24553;51.640;-0.752;2023-06-26T03:03:41;100935.09;;;15.82;100.00
38812;BME280;24553;51.640;-0.752;2023-06-26T03:06:07;100924.81;;;15.85;100.00
38812;BME280;24553;51.640;-0.752;2023-06-26T03:08:33;100927.50;;;15.79;100.00
38812;BME280;24553;51.640;-0.752;2023-06-26T03:10:58;100936.97;;;15.75;100.00
38812;BME280;24553;51.640;-0.752;2023-06-26T03:13:24;100934.72;;;15.72;100.00
38812;BME280;24553;51.640;-0.752;2023-06-26T03:15:49;100942.34;;;15.68;100.00
38812;BME280;24553;51.640;-0.752;2023-06-26T03:18:14;100942.16;;;15.69;100.00
38812;BME280;24553;51.640;-0.752;2023-06-26T03:20:40;100941.13;;;15.70;100.00
38812;BME280;24553;51.640;-0.752;2023-06-26T03:23:05;100954.03;;;15.80;100.00
38812;BME280;24553;51.640;-0.752;2023-06-26T03:25:30;100947.25;;;15.78;100.00
38812;BME280;24553;51.640;-0.752;2023-06-26T03:27:56;100954.44;;;15.77;100.00
38812;BME280;24553;51.640;-0.752;2023-06-26T03:30:21;100952.22;;;15.67;100.00
38812;BME280;24553;51.640;-0.752;2023-06-26T03:32:46;100956.75;;;15.67;100.00
38812;BME280;24553;51.640;-0.752;2023-06-26T03:35:12;100957.34;;;15.69;100.00
38812;BME280;24553;51.640;-0.752;2023-06-26T03:37:37;100957.56;;;15.61;100.00
38812;BME280;24553;51.640;-0.752;2023-06-26T03:40:02;100952.03;;;15.62;100.00
38812;BME280;24553;51.640;-0.752;2023-06-26T03:42:29;100963.09;;;15.66;100.00
38812;BME280;24553;51.640;-0.752;2023-06-26T03:44:55;100958.19;;;15.63;100.00
38812;BME280;24553;51.640;-0.752;2023-06-26T03:47:20;100968.94;;;15.49;100.00
38812;BME280;24553;51.640;-0.752;2023-06-26T03:49:45;100971.25;;;15.39;100.00
38812;BME280;24553;51.640;-0.752;2023-06-26T03:52:11;100971.44;;;15.38;100.00
38812;BME280;24553;51.640;-0.752;2023-06-26T03:54:36;100984.84;;;15.31;100.00
38812;BME280;24553;51.640;-0.752;2023-06-26T03:57:01;100992.66;;;15.19;100.00
38812;BME280;24553;51.640;-0.752;2023-06-26T03:59:27;100989.81;;;15.08;100.00
38812;BME280;24553;51.640;-0.752;2023-06-26T04:01:52;100988.59;;;14.97;100.00
38812;BME280;24553;51.640;-0.752;2023-06-26T04:04:18;100994.75;;;14.84;100.00
38812;BME280;24553;51.640;-0.752;2023-06-26T04:06:43;100987.78;;;14.83;100.00
38812;BME280;24553;51.640;-0.752;2023-06-26T04:09:08;100991.28;;;14.77;100.00
38812;BME280;24553;51.640;-0.752;2023-06-26T04:11:34;100982.88;;;14.80;100.00
38812;BME280;24553;51.640;-0.752;2023-06-26T04:13:59;100986.34;;;14.80;100.00
38812;BME280;24553;51.640;-0.752;2023-06-26T04:16:25;100982.44;;;14.83;100.00
38812;BME280;24553;51.640;-0.752;2023-06-26T04:18:51;100989.44;;;14.77;100.00
38812;BME280;24553;51.640;-0.752;2023-06-26T04:21:17;100995.00;;;14.69;100.00
38812;BME280;24553;51.640;-0.752;2023-06-26T04:23:43;100986.13;;;14.69;100.00
38812;BME280;24553;51.640;-0.752;2023-06-26T04:26:08;100998.06;;;14.73;100.00
38812;BME280;24553;51.640;-0.752;2023-06-26T04:28:34;101006.25;;;14.71;100.00
38812;BME280;24553;51.640;-0.752;2023-06-26T04:31:01;101006.28;;;14.65;100.00
38812;BME280;24553;51.640;-0.752;2023-06-26T04:33:27;101010.38;;;14.60;100.00
38812;BME280;24553;51.640;-0.752;2023-06-26T04:35:53;101016.53;;;14.68;100.00
38812;BME280;24553;51.640;-0.752;2023-06-26T04:38:19;101022.06;;;14.73;100.00
38812;BME280;24553;51.640;-0.752;2023-06-26T04:40:44;101019.41;;;14.79;100.00
38812;BME280;24553;51.640;-0.752;2023-06-26T04:43:10;101024.75;;;14.73;100.00
38812;BME280;24553;51.640;-0.752;2023-06-26T04:45:35;101028.03;;;14.75;100.00
38812;BME280;24553;51.640;-0.752;2023-06-26T04:48:01;101018.38;;;14.94;100.00
38812;BME280;24553;51.640;-0.752;2023-06-26T04:50:26;101021.88;;;15.08;100.00
38812;BME280;24553;51.640;-0.752;2023-06-26T04:52:54;101033.34;;;15.21;100.00
38812;BME280;24553;51.640;-0.752;2023-06-26T04:55:20;101033.13;;;15.36;100.00
38812;BME280;24553;51.640;-0.752;2023-06-26T04:57:46;101030.44;;;15.36;100.00
38812;BME280;24553;51.640;-0.752;2023-06-26T05:00:12;101030.44;;;15.36;100.00
38812;BME280;24553;51.640;-0.752;2023-06-26T05:02:38;101040.72;;;15.39;100.00
38812;BME280;24553;51.640;-0.752;2023-06-26T05:05:03;101036.56;;;15.50;100.00
38812;BME280;24553;51.640;-0.752;2023-06-26T05:07:29;101035.53;;;15.58;100.00
38812;BME280;24553;51.640;-0.752;2023-06-26T05:09:54;101030.38;;;15.63;100.00
38812;BME280;24553;51.640;-0.752;2023-06-26T05:12:20;101042.91;;;15.69;100.00
38812;BME280;24553;51.640;-0.752;2023-06-26T05:14:45;101040.84;;;15.78;100.00
38812;BME280;24553;51.640;-0.752;2023-06-26T05:17:13;101040.00;;;15.77;100.00
38812;BME280;24553;51.640;-0.752;2023-06-26T05:19:38;101038.31;;;15.89;100.00
38812;BME280;24553;51.640;-0.752;2023-06-26T05:22:04;101045.50;;;15.96;100.00
38812;BME280;24553;51.640;-0.752;2023-06-26T05:24:34;101056.13;;;16.09;100.00
38812;BME280;24553;51.640;-0.752;2023-06-26T05:27:00;101055.25;;;16.15;100.00
38812;BME280;24553;51.640;-0.752;2023-06-26T05:29:26;101055.88;;;16.17;100.00
38812;BME280;24553;51.640;-0.752;2023-06-26T05:31:52;101063.44;;;16.27;100.00
38812;BME280;24553;51.640;-0.752;2023-06-26T05:34:19;101078.28;;;16.23;100.00
38812;BME280;24553;51.640;-0.752;2023-06-26T05:36:49;101070.56;;;16.40;100.00
38812;BME280;24553;51.640;-0.752;2023-06-26T05:39:15;101081.63;;;16.50;100.00
38812;BME280;24553;51.640;-0.752;2023-06-26T05:41:41;101080.50;;;16.64;100.00
38812;BME280;24553;51.640;-0.752;2023-06-26T05:44:06;101081.28;;;16.71;100.00
38812;BME280;24553;51.640;-0.752;2023-06-26T05:46:32;101064.53;;;16.83;100.00
38812;BME280;24553;51.640;-0.752;2023-06-26T05:48:57;101066.38;;;16.82;100.00
38812;BME280;24553;51.640;-0.752;2023-06-26T05:51:23;101063.50;;;16.84;100.00
38812;BME280;24553;51.640;-0.752;2023-06-26T05:53:49;101059.13;;;16.89;100.00
38812;BME280;24553;51.640;-0.752;2023-06-26T05:56:15;101059.06;;;16.96;100.00
38812;BME280;24553;51.640;-0.752;2023-06-26T05:58:41;101062.06;;;17.06;100.00
38812;BME280;24553;51.640;-0.752;2023-06-26T06:01:07;101054.13;;;17.18;100.00
38812;BME280;24553;51.640;-0.752;2023-06-26T06:03:33;101057.63;;;17.18;100.00
38812;BME280;24553;51.640;-0.752;2023-06-26T06:05:58;101051.31;;;17.13;100.00
38812;BME280;24553;51.640;-0.752;2023-06-26T06:08:23;101061.97;;;17.19;100.00
38812;BME280;24553;51.640;-0.752;2023-06-26T06:10:49;101065.53;;;17.32;100.00
38812;BME280;24553;51.640;-0.752;2023-06-26T06:13:14;101063.84;;;17.37;100.00
38812;BME280;24553;51.640;-0.752;2023-06-26T06:15:40;101058.56;;;17.49;100.00
38812;BME280;24553;51.640;-0.752;2023-06-26T06:18:05;101057.50;;;17.50;100.00
38812;BME280;24553;51.640;-0.752;2023-06-26T06:20:30;101067.28;;;17.63;100.00
38812;BME280;24553;51.640;-0.752;2023-06-26T06:22:55;101072.72;;;17.75;100.00
38812;BME280;24553;51.640;-0.752;2023-06-26T06:25:21;101075.38;;;17.81;100.00
38812;BME280;24553;51.640;-0.752;2023-06-26T06:27:46;101080.31;;;17.78;100.00
38812;BME280;24553;51.640;-0.752;2023-06-26T06:30:12;101074.25;;;17.89;100.00
38812;BME280;24553;51.640;-0.752;2023-06-26T06:32:37;101074.25;;;17.89;100.00
38812;BME280;24553;51.640;-0.752;2023-06-26T06:35:02;101079.31;;;17.97;100.00
38812;BME280;24553;51.640;-0.752;2023-06-26T06:37:34;101083.22;;;18.13;100.00
38812;BME280;24553;51.640;-0.752;2023-06-26T06:39:59;101090.69;;;18.11;100.00
38812;BME280;24553;51.640;-0.752;2023-06-26T06:42:25;101087.22;;;18.22;100.00
38812;BME280;24553;51.640;-0.752;2023-06-26T06:44:50;101088.88;;;18.23;100.00
38812;BME280;24553;51.640;-0.752;2023-06-26T06:47:15;101084.59;;;18.34;100.00
38812;BME280;24553;51.640;-0.752;2023-06-26T06:49:41;101094.31;;;18.47;100.00
38812;BME280;24553;51.640;-0.752;2023-06-26T06:52:07;101087.63;;;18.68;100.00
38812;BME280;24553;51.640;-0.752;2023-06-26T06:54:51;101093.81;;;18.68;100.00
38812;BME280;24553;51.640;-0.752;2023-06-26T06:57:16;101090.59;;;18.78;100.00
38812;BME280;24553;51.640;-0.752;2023-06-26T06:59:42;101095.75;;;18.91;100.00
38812;BME280;24553;51.640;-0.752;2023-06-26T07:02:07;101101.84;;;18.99;100.00
38812;BME280;24553;51.640;-0.752;2023-06-26T07:04:32;101105.59;;;18.98;100.00
38812;BME280;24553;51.640;-0.752;2023-06-26T07:06:57;101103.50;;;19.11;100.00
38812;BME280;24553;51.640;-0.752;2023-06-26T07:09:23;101109.09;;;19.33;100.00
38812;BME280;24553;51.640;-0.752;2023-06-26T07:11:48;101101.75;;;19.40;100.00
38812;BME280;24553;51.640;-0.752;2023-06-26T07:14:13;101108.88;;;19.47;100.00
38812;BME280;24553;51.640;-0.752;2023-06-26T07:16:39;101112.34;;;19.59;100.00
38812;BME280;24553;51.640;-0.752;2023-06-26T07:19:04;101104.53;;;19.57;100.00
38812;BME280;24553;51.640;-0.752;2023-06-26T07:21:29;101119.97;;;19.62;100.00
38812;BME280;24553;51.640;-0.752;2023-06-26T07:23:55;101118.44;;;19.66;100.00
38812;BME280;24553;51.640;-0.752;2023-06-26T07:26:20;101114.13;;;19.77;100.00
38812;BME280;24553;51.640;-0.752;2023-06-26T07:28:47;101123.13;;;19.82;100.00
38812;BME280;24553;51.640;-0.752;2023-06-26T07:31:13;101124.50;;;19.85;100.00
38812;BME280;24553;51.640;-0.752;2023-06-26T07:33:39;101120.63;;;19.93;100.00
38812;BME280;24553;51.640;-0.752;2023-06-26T07:36:05;101123.22;;;19.99;100.00
38812;BME280;24553;51.640;-0.752;2023-06-26T07:38:30;101126.72;;;20.00;100.00
38812;BME280;24553;51.640;-0.752;2023-06-26T07:40:56;101112.13;;;19.96;100.00
38812;BME280;24553;51.640;-0.752;2023-06-26T07:43:21;101136.44;;;20.01;100.00
38812;BME280;24553;51.640;-0.752;2023-06-26T07:45:48;101140.28;;;20.05;100.00
38812;BME280;24553;51.640;-0.752;2023-06-26T07:48:13;101137.09;;;20.08;100.00
38812;BME280;24553;51.640;-0.752;2023-06-26T07:50:39;101133.44;;;20.26;100.00
38812;BME280;24553;51.640;-0.752;2023-06-26T07:53:04;101135.91;;;20.16;100.00
38812;BME280;24553;51.640;-0.752;2023-06-26T07:55:31;101139.69;;;20.03;100.00
38812;BME280;24553;51.640;-0.752;2023-06-26T07:57:56;101135.25;;;20.09;100.00
38812;BME280;24553;51.640;-0.752;2023-06-26T08:00:22;101146.59;;;20.39;100.00
38812;BME280;24553;51.640;-0.752;2023-06-26T08:02:47;101137.00;;;20.55;100.00
38812;BME280;24553;51.640;-0.752;2023-06-26T08:05:13;101143.78;;;20.75;100.00
38812;BME280;24553;51.640;-0.752;2023-06-26T08:07:38;101154.47;;;20.69;100.00
38812;BME280;24553;51.640;-0.752;2023-06-26T08:10:05;101159.81;;;20.98;100.00
38812;BME280;24553;51.640;-0.752;2023-06-26T08:12:30;101148.00;;;21.33;100.00
38812;BME280;24553;51.640;-0.752;2023-06-26T08:14:56;101151.75;;;21.32;100.00
38812;BME280;24553;51.640;-0.752;2023-06-26T08:17:21;101149.53;;;21.29;100.00
38812;BME280;24553;51.640;-0.752;2023-06-26T08:19:46;101143.97;;;21.19;98.62
38812;BME280;24553;51.640;-0.752;2023-06-26T08:22:11;101137.56;;;21.20;98.01
38812;BME280;24553;51.640;-0.752;2023-06-26T08:24:37;101134.78;;;21.48;100.00
38812;BME280;24553;51.640;-0.752;2023-06-26T08:27:02;101138.84;;;21.51;100.00
38812;BME280;24553;51.640;-0.752;2023-06-26T08:29:28;101181.94;;;21.46;98.21
38812;BME280;24553;51.640;-0.752;2023-06-26T08:31:54;101162.22;;;21.62;94.66
38812;BME280;24553;51.640;-0.752;2023-06-26T08:34:19;101175.31;;;21.53;89.36
38812;BME280;24553;51.640;-0.752;2023-06-26T08:36:44;101169.41;;;21.56;89.81
38812;BME280;24553;51.640;-0.752;2023-06-26T08:39:10;101160.09;;;21.47;90.25
38812;BME280;24553;51.640;-0.752;2023-06-26T08:41:35;101166.56;;;21.46;91.93
38812;BME280;24553;51.640;-0.752;2023-06-26T08:44:02;101177.16;;;21.36;89.33
38812;BME280;24553;51.640;-0.752;2023-06-26T08:46:28;101171.63;;;21.26;89.80
38812;BME280;24553;51.640;-0.752;2023-06-26T08:49:00;101173.31;;;21.15;90.08
38812;BME280;24553;51.640;-0.752;2023-06-26T08:51:28;101179.06;;;21.35;89.81
38812;BME280;24553;51.640;-0.752;2023-06-26T08:54:02;101186.72;;;21.27;90.32
38812;BME280;24553;51.640;-0.752;2023-06-26T08:56:36;101174.22;;;21.21;88.24
38812;BME280;24553;51.640;-0.752;2023-06-26T08:59:03;101178.53;;;21.22;90.23
38812;BME280;24553;51.640;-0.752;2023-06-26T09:01:30;101180.97;;;21.06;88.29
38812;BME280;24553;51.640;-0.752;2023-06-26T09:03:56;101195.53;;;21.05;89.72
38812;BME280;24553;51.640;-0.752;2023-06-26T09:06:21;101190.84;;;21.46;90.40
38812;BME280;24553;51.640;-0.752;2023-06-26T09:08:46;101183.78;;;21.79;89.09
38812;BME280;24553;51.640;-0.752;2023-06-26T09:11:12;101191.06;;;22.00;90.20
38812;BME280;24553;51.640;-0.752;2023-06-26T09:13:37;101195.25;;;22.30;88.90
38812;BME280;24553;51.640;-0.752;2023-06-26T09:16:06;101197.75;;;22.59;87.37
38812;BME280;24553;51.640;-0.752;2023-06-26T09:18:33;101188.06;;;23.17;86.85
38812;BME280;24553;51.640;-0.752;2023-06-26T09:20:58;101187.19;;;22.84;84.39
38812;BME280;24553;51.640;-0.752;2023-06-26T09:23:23;101192.16;;;22.93;85.81
38812;BME280;24553;51.640;-0.752;2023-06-26T09:25:51;101190.72;;;22.85;85.86
38812;BME280;24553;51.640;-0.752;2023-06-26T09:28:16;101185.72;;;22.72;84.72
38812;BME280;24553;51.640;-0.752;2023-06-26T09:30:42;101188.34;;;22.39;86.05
38812;BME280;24553;51.640;-0.752;2023-06-26T09:33:18;101186.16;;;22.36;84.81
38812;BME280;24553;51.640;-0.752;2023-06-26T09:35:44;101189.34;;;22.55;84.67
38812;BME280;24553;51.640;-0.752;2023-06-26T09:38:11;101192.94;;;22.66;82.89
38812;BME280;24553;51.640;-0.752;2023-06-26T09:40:36;101179.16;;;22.95;82.10
38812;BME280;24553;51.640;-0.752;2023-06-26T09:43:09;101174.31;;;23.24;81.27
38812;BME280;24553;51.640;-0.752;2023-06-26T09:45:39;101187.72;;;23.46;79.89
38812;BME280;24553;51.640;-0.752;2023-06-26T09:48:06;101186.66;;;23.84;78.70
38812;BME280;24553;51.640;-0.752;2023-06-26T09:50:34;101197.19;;;23.76;78.71
38812;BME280;24553;51.640;-0.752;2023-06-26T09:53:12;101197.97;;;23.39;74.18
38812;BME280;24553;51.640;-0.752;2023-06-26T09:55:39;101195.22;;;23.34;77.46
38812;BME280;24553;51.640;-0.752;2023-06-26T09:58:06;101193.25;;;23.24;77.86
38812;BME280;24553;51.640;-0.752;2023-06-26T10:00:32;101191.16;;;23.36;78.68
38812;BME280;24553;51.640;-0.752;2023-06-26T10:03:01;101192.91;;;23.47;76.09
38812;BME280;24553;51.640;-0.752;2023-06-26T10:05:26;101205.75;;;22.98;78.25
38812;BME280;24553;51.640;-0.752;2023-06-26T10:07:52;101197.41;;;22.77;76.91
38812;BME280;24553;51.640;-0.752;2023-06-26T10:10:19;101189.81;;;23.01;77.74
38812;BME280;24553;51.640;-0.752;2023-06-26T10:12:48;101204.75;;;23.09;78.23
38812;BME280;24553;51.640;-0.752;2023-06-26T10:15:15;101191.50;;;23.40;78.56
38812;BME280;24553;51.640;-0.752;2023-06-26T10:17:43;101210.72;;;23.76;77.18
38812;BME280;24553;51.640;-0.752;2023-06-26T10:20:12;101187.66;;;24.26;76.63
38812;BME280;24553;51.640;-0.752;2023-06-26T10:22:45;101196.66;;;24.42;72.35
38812;BME280;24553;51.640;-0.752;2023-06-26T10:25:12;101211.03;;;24.42;71.74
38812;BME280;24553;51.640;-0.752;2023-06-26T10:27:43;101219.47;;;23.98;71.32
38812;BME280;24553;51.640;-0.752;2023-06-26T10:30:12;101225.16;;;23.91;70.72
38812;BME280;24553;51.640;-0.752;2023-06-26T10:32:39;101215.28;;;24.23;71.43
38812;BME280;24553;51.640;-0.752;2023-06-26T10:35:06;101217.78;;;24.34;71.66
38812;BME280;24553;51.640;-0.752;2023-06-26T10:37:42;101229.81;;;24.01;68.00
38812;BME280;24553;51.640;-0.752;2023-06-26T10:40:09;101225.81;;;24.09;69.78
38812;BME280;24553;51.640;-0.752;2023-06-26T10:42:36;101221.47;;;24.13;69.69
38812;BME280;24553;51.640;-0.752;2023-06-26T10:47:42;101219.19;;;24.52;68.82
38812;BME280;24553;51.640;-0.752;2023-06-26T10:50:39;101214.19;;;24.24;66.81
38812;BME280;24553;51.640;-0.752;2023-06-26T10:55:36;101221.94;;;24.63;68.38
38812;BME280;24553;51.640;-0.752;2023-06-26T10:58:02;101220.41;;;24.92;67.20
38812;BME280;24553;51.640;-0.752;2023-06-26T11:00:28;101231.84;;;25.25;67.31
38812;BME280;24553;51.640;-0.752;2023-06-26T11:02:53;101230.47;;;25.12;65.55
38812;BME280;24553;51.640;-0.752;2023-06-26T11:05:29;101226.34;;;24.79;63.78
38812;BME280;24553;51.640;-0.752;2023-06-26T11:08:04;101226.81;;;24.50;63.68
38812;BME280;24553;51.640;-0.752;2023-06-26T11:10:48;101239.28;;;24.51;62.23
38812;BME280;24553;51.640;-0.752;2023-06-26T11:13:13;101215.84;;;24.25;64.26
38812;BME280;24553;51.640;-0.752;2023-06-26T11:15:42;101221.59;;;24.44;64.28
38812;BME280;24553;51.640;-0.752;2023-06-26T11:18:09;101233.41;;;24.90;62.75
38812;BME280;24553;51.640;-0.752;2023-06-26T11:20:34;101233.72;;;24.26;62.96
38812;BME280;24553;51.640;-0.752;2023-06-26T11:23:00;101239.25;;;23.93;63.78
38812;BME280;24553;51.640;-0.752;2023-06-26T11:25:25;101238.13;;;24.37;62.91
38812;BME280;24553;51.640;-0.752;2023-06-26T11:27:53;101230.44;;;24.97;63.13
38812;BME280;24553;51.640;-0.752;2023-06-26T11:30:25;101238.03;;;25.00;61.60
38812;BME280;24553;51.640;-0.752;2023-06-26T11:32:51;101247.19;;;24.68;62.55
38812;BME280;24553;51.640;-0.752;2023-06-26T11:35:23;101241.66;;;24.43;62.45
38812;BME280;24553;51.640;-0.752;2023-06-26T11:38:01;101243.66;;;24.73;63.08
38812;BME280;24553;51.640;-0.752;2023-06-26T11:40:31;101241.59;;;25.16;63.11
38812;BME280;24553;51.640;-0.752;2023-06-26T11:42:58;101244.59;;;25.30;61.83
38812;BME280;24553;51.640;-0.752;2023-06-26T11:45:27;101246.78;;;25.48;61.23
38812;BME280;24553;51.640;-0.752;2023-06-26T11:47:54;101257.03;;;25.00;61.94
38812;BME280;24553;51.640;-0.752;2023-06-26T11:50:20;101259.53;;;24.44;62.47
38812;BME280;24553;51.640;-0.752;2023-06-26T11:52:45;101261.50;;;24.53;62.82
38812;BME280;24553;51.640;-0.752;2023-06-26T11:55:17;101260.16;;;24.56;60.61
38812;BME280;24553;51.640;-0.752;2023-06-26T11:57:48;101255.00;;;24.54;60.86
38812;BME280;24553;51.640;-0.752;2023-06-26T12:00:14;101260.00;;;24.93;61.66
38812;BME280;24553;51.640;-0.752;2023-06-26T12:02:41;101254.84;;;24.92;61.97
38812;BME280;24553;51.640;-0.752;2023-06-26T12:05:07;101256.16;;;24.69;61.99
38812;BME280;24553;51.640;-0.752;2023-06-26T12:07:33;101255.09;;;24.85;61.20
38812;BME280;24553;51.640;-0.752;2023-06-26T12:10:00;101263.59;;;25.24;59.96
38812;BME280;24553;51.640;-0.752;2023-06-26T12:12:26;101264.13;;;25.57;58.06
38812;BME280;24553;51.640;-0.752;2023-06-26T12:14:52;101276.09;;;25.41;56.01
38812;BME280;24553;51.640;-0.752;2023-06-26T12:17:22;101268.13;;;24.93;54.84
38812;BME280;24553;51.640;-0.752;2023-06-26T12:19:48;101255.69;;;25.08;54.85
38812;BME280;24553;51.640;-0.752;2023-06-26T12:22:15;101266.53;;;25.13;54.98
38812;BME280;24553;51.640;-0.752;2023-06-26T12:24:41;101262.63;;;24.63;52.68
38812;BME280;24553;51.640;-0.752;2023-06-26T12:27:12;101258.94;;;24.99;54.05
38812;BME280;24553;51.640;-0.752;2023-06-26T12:29:40;101253.53;;;25.10;51.49
38812;BME280;24553;51.640;-0.752;2023-06-26T12:32:09;101259.81;;;25.36;53.97
38812;BME280;24553;51.640;-0.752;2023-06-26T12:34:36;101258.94;;;25.15;54.49
38812;BME280;24553;51.640;-0.752;2023-06-26T12:37:09;101261.44;;;25.52;55.07